createdAt,value
2019-03-28T00:00:29.988Z,0.00
2019-03-28T00:01:29.979Z,0.00
2019-03-28T00:02:29.972Z,0.00
2019-03-28T00:03:29.964Z,0.00
2019-03-28T00:04:29.957Z,0.00
2019-03-28T00:05:29.950Z,0.00
2019-03-28T00:06:29.944Z,0.00
2019-03-28T00:07:29.934Z,0.00
2019-03-28T00:08:29.929Z,0.00
2019-03-28T00:09:29.921Z,0.00
2019-03-28T00:10:29.912Z,0.00
2019-03-28T00:11:29.908Z,0.00
2019-03-28T00:12:29.901Z,0.00
2019-03-28T00:13:30.188Z,0.00
2019-03-28T00:14:29.886Z,0.00
2019-03-28T00:15:29.881Z,0.00
2019-03-28T00:16:29.873Z,0.00
2019-03-28T00:17:29.865Z,0.00
2019-03-28T00:18:29.863Z,0.00
2019-03-28T00:19:57.582Z,0.00
2019-03-28T00:20:57.577Z,0.00
2019-03-28T00:21:57.571Z,0.00
2019-03-28T00:22:57.565Z,0.00
2019-03-28T00:23:57.560Z,0.00
2019-03-28T00:24:57.552Z,0.00
2019-03-28T00:25:57.543Z,0.00
2019-03-28T00:26:57.538Z,0.00
2019-03-28T00:27:57.531Z,0.00
2019-03-28T00:28:57.524Z,0.00
2019-03-28T00:29:57.520Z,0.00
2019-03-28T00:30:57.512Z,0.00
2019-03-28T00:31:57.509Z,0.00
2019-03-28T00:32:57.499Z,0.00
2019-03-28T00:33:57.492Z,0.00
2019-03-28T00:34:57.483Z,0.00
2019-03-28T00:35:57.476Z,0.00
2019-03-28T00:36:57.474Z,0.00
2019-03-28T00:37:57.665Z,0.00
2019-03-28T00:38:57.456Z,0.00
2019-03-28T00:39:57.451Z,0.00
2019-03-28T00:40:57.445Z,0.00
2019-03-28T00:41:57.438Z,0.00
2019-03-28T00:42:57.433Z,0.00
2019-03-28T00:43:57.451Z,0.00
2019-03-28T00:44:57.444Z,0.00
2019-03-28T00:45:57.524Z,0.00
2019-03-28T00:46:57.432Z,0.00
2019-03-28T00:47:57.423Z,0.00
2019-03-28T00:48:57.421Z,0.00
2019-03-28T00:49:57.410Z,0.00
2019-03-28T00:50:57.410Z,0.00
2019-03-28T00:51:57.398Z,0.00
2019-03-28T00:52:57.393Z,0.00
2019-03-28T00:53:57.386Z,0.00
2019-03-28T00:54:57.379Z,0.00
2019-03-28T00:55:57.373Z,0.00
2019-03-28T00:56:57.367Z,0.00
2019-03-28T00:57:57.360Z,0.00
2019-03-28T00:58:57.384Z,0.00
2019-03-28T00:59:57.574Z,0.00
2019-03-28T01:00:57.362Z,0.00
2019-03-28T01:01:57.355Z,0.00
2019-03-28T01:02:57.352Z,0.00
2019-03-28T01:03:57.343Z,0.00
2019-03-28T01:04:57.338Z,0.00
2019-03-28T01:05:57.332Z,0.00
2019-03-28T01:06:57.379Z,0.00
2019-03-28T01:07:57.316Z,0.00
2019-03-28T01:08:57.308Z,0.00
2019-03-28T01:09:57.411Z,0.00
2019-03-28T01:10:57.294Z,0.00
2019-03-28T01:11:57.287Z,0.00
2019-03-28T01:12:57.280Z,0.00
2019-03-28T01:13:57.272Z,0.00
2019-03-28T01:14:57.303Z,0.00
2019-03-28T01:15:57.262Z,0.00
2019-03-28T01:16:57.255Z,0.00
2019-03-28T01:17:57.251Z,0.00
2019-03-28T01:18:57.243Z,0.00
2019-03-28T01:19:57.245Z,0.00
2019-03-28T01:20:57.228Z,0.00
2019-03-28T01:21:57.221Z,0.00
2019-03-28T01:22:57.215Z,0.00
2019-03-28T01:23:57.207Z,0.00
2019-03-28T01:24:57.910Z,0.00
2019-03-28T01:25:57.194Z,0.00
2019-03-28T01:26:58.753Z,0.00
2019-03-28T01:27:57.201Z,0.00
2019-03-28T01:28:57.198Z,0.00
2019-03-28T01:29:57.287Z,0.00
2019-03-28T01:30:57.201Z,0.00
2019-03-28T01:31:57.195Z,0.00
2019-03-28T01:32:57.186Z,0.00
2019-03-28T01:33:57.181Z,0.00
2019-03-28T01:34:57.176Z,0.00
2019-03-28T01:35:57.168Z,0.00
2019-03-28T01:36:57.160Z,0.00
2019-03-28T01:37:57.152Z,0.00
2019-03-28T01:38:57.146Z,0.00
2019-03-28T01:39:57.139Z,0.00
2019-03-28T01:40:57.130Z,0.00
2019-03-28T01:41:57.125Z,0.00
2019-03-28T01:42:57.118Z,0.00
2019-03-28T01:43:57.115Z,0.00
2019-03-28T01:44:57.103Z,0.00
2019-03-28T01:45:57.096Z,0.00
2019-03-28T01:46:57.093Z,0.00
2019-03-28T01:47:57.083Z,0.00
2019-03-28T01:48:57.077Z,0.00
2019-03-28T01:49:57.078Z,0.00
2019-03-28T01:50:57.064Z,0.00
2019-03-28T01:51:57.057Z,0.00
2019-03-28T01:52:57.049Z,0.00
2019-03-28T01:54:24.769Z,0.00
2019-03-28T01:55:24.772Z,0.00
2019-03-28T01:56:25.182Z,0.00
2019-03-28T01:57:24.752Z,0.00
2019-03-28T01:58:24.747Z,0.00
2019-03-28T01:59:24.739Z,0.00
2019-03-28T02:00:24.733Z,0.00
2019-03-28T02:01:24.727Z,0.00
2019-03-28T02:02:24.719Z,0.00
2019-03-28T02:03:24.714Z,0.00
2019-03-28T02:04:24.705Z,0.00
2019-03-28T02:05:24.701Z,0.00
2019-03-28T02:06:24.694Z,0.00
2019-03-28T02:07:25.204Z,0.00
2019-03-28T02:08:25.047Z,0.00
2019-03-28T02:09:24.694Z,0.00
2019-03-28T02:10:24.685Z,0.00
2019-03-28T02:11:24.680Z,0.00
2019-03-28T02:12:24.671Z,0.00
2019-03-28T02:13:24.685Z,0.00
2019-03-28T02:14:24.678Z,0.00
2019-03-28T02:15:24.671Z,0.00
2019-03-28T02:16:24.667Z,0.00
2019-03-28T02:17:24.660Z,0.00
2019-03-28T02:18:24.652Z,0.00
2019-03-28T02:19:24.645Z,0.00
2019-03-28T02:20:24.637Z,0.00
2019-03-28T02:21:24.631Z,0.00
2019-03-28T02:22:24.623Z,0.00
2019-03-28T02:23:24.615Z,0.00
2019-03-28T02:24:24.608Z,0.00
2019-03-28T02:25:24.600Z,0.00
2019-03-28T02:26:24.594Z,0.00
2019-03-28T02:27:24.755Z,0.00
2019-03-28T02:28:24.583Z,0.00
2019-03-28T02:29:24.574Z,0.00
2019-03-28T02:30:24.954Z,0.00
2019-03-28T02:31:24.564Z,0.00
2019-03-28T02:32:24.554Z,0.00
2019-03-28T02:33:25.485Z,0.00
2019-03-28T02:34:24.585Z,0.00
2019-03-28T02:35:24.582Z,0.00
2019-03-28T02:36:24.571Z,0.00
2019-03-28T02:37:24.567Z,0.00
2019-03-28T02:38:24.564Z,0.00
2019-03-28T02:39:24.786Z,0.00
2019-03-28T02:40:24.546Z,0.00
2019-03-28T02:41:24.538Z,0.00
2019-03-28T02:42:24.536Z,0.00
2019-03-28T02:43:24.523Z,0.00
2019-03-28T02:44:24.517Z,0.00
2019-03-28T02:45:24.511Z,0.00
2019-03-28T02:46:24.507Z,0.00
2019-03-28T02:47:24.515Z,0.00
2019-03-28T02:48:24.492Z,0.00
2019-03-28T02:49:24.501Z,0.00
2019-03-28T02:50:24.488Z,0.00
2019-03-28T02:51:24.483Z,0.00
2019-03-28T02:52:24.462Z,0.00
2019-03-28T02:53:24.455Z,0.00
2019-03-28T02:54:24.461Z,0.00
2019-03-28T02:55:24.470Z,0.00
2019-03-28T02:56:24.458Z,0.00
2019-03-28T02:57:39.585Z,0.00
2019-03-28T02:58:52.172Z,0.00
2019-03-28T02:59:52.170Z,0.00
2019-03-28T03:00:52.163Z,0.00
2019-03-28T03:01:52.357Z,0.00
2019-03-28T03:02:52.154Z,0.00
2019-03-28T03:03:52.180Z,0.00
2019-03-28T03:04:52.142Z,0.00
2019-03-28T03:05:52.139Z,0.00
2019-03-28T03:06:52.126Z,0.00
2019-03-28T03:07:52.122Z,0.00
2019-03-28T03:08:52.114Z,0.00
2019-03-28T03:09:52.109Z,0.00
2019-03-28T03:10:52.109Z,0.00
2019-03-28T03:12:52.085Z,0.00
2019-03-28T03:13:52.079Z,0.00
2019-03-28T03:14:52.075Z,0.00
2019-03-28T03:15:52.073Z,0.00
2019-03-28T03:16:52.060Z,0.00
2019-03-28T03:17:52.050Z,0.00
2019-03-28T03:18:52.044Z,0.00
2019-03-28T03:19:52.069Z,0.00
2019-03-28T03:20:52.062Z,0.00
2019-03-28T03:21:52.058Z,0.00
2019-03-28T03:22:52.053Z,0.00
2019-03-28T03:24:52.035Z,0.00
2019-03-28T03:25:52.030Z,0.00
2019-03-28T03:26:52.025Z,0.00
2019-03-28T03:27:58.321Z,0.00
2019-03-28T03:29:19.738Z,0.00
2019-03-28T03:30:19.740Z,0.00
2019-03-28T03:31:21.424Z,0.00
2019-03-28T03:32:19.741Z,0.00
2019-03-28T03:33:19.720Z,0.00
2019-03-28T03:34:19.726Z,0.00
2019-03-28T03:35:19.706Z,0.00
2019-03-28T03:36:19.702Z,0.00
2019-03-28T03:37:19.697Z,0.00
2019-03-28T03:39:19.696Z,0.00
2019-03-28T03:40:19.675Z,0.00
2019-03-28T03:41:19.730Z,0.00
2019-03-28T03:42:19.658Z,0.00
2019-03-28T03:43:19.650Z,0.00
2019-03-28T03:44:19.643Z,0.00
2019-03-28T03:45:19.635Z,0.00
2019-03-28T03:46:19.752Z,0.00
2019-03-28T03:47:19.909Z,0.00
2019-03-28T03:48:19.631Z,0.00
2019-03-28T03:49:19.625Z,0.00
2019-03-28T03:50:19.611Z,0.00
2019-03-28T03:51:19.610Z,0.00
2019-03-28T03:52:19.593Z,0.00
2019-03-28T03:53:19.589Z,0.00
2019-03-28T03:54:19.577Z,0.00
2019-03-28T03:55:19.572Z,0.00
2019-03-28T03:56:19.574Z,0.00
2019-03-28T03:57:19.559Z,0.00
2019-03-28T03:58:19.571Z,0.00
2019-03-28T03:59:19.546Z,0.00
2019-03-28T04:00:19.536Z,0.00
2019-03-28T04:01:19.532Z,0.00
2019-03-28T04:02:19.525Z,0.00
2019-03-28T04:03:19.522Z,0.00
2019-03-28T04:04:19.515Z,0.00
2019-03-28T04:05:19.502Z,0.00
2019-03-28T04:06:19.513Z,0.00
2019-03-28T04:07:19.489Z,0.00
2019-03-28T04:08:19.621Z,0.00
2019-03-28T04:09:19.478Z,0.00
2019-03-28T04:10:19.479Z,0.00
2019-03-28T04:11:19.765Z,0.00
2019-03-28T04:12:19.457Z,0.00
2019-03-28T04:13:19.453Z,0.00
2019-03-28T04:14:19.450Z,0.00
2019-03-28T04:15:19.452Z,0.00
2019-03-28T04:16:19.444Z,0.00
2019-03-28T04:17:19.505Z,0.00
2019-03-28T04:19:19.420Z,0.00
2019-03-28T04:20:19.416Z,0.00
2019-03-28T04:21:19.408Z,0.00
2019-03-28T04:22:19.402Z,0.00
2019-03-28T04:23:19.394Z,0.00
2019-03-28T04:24:19.387Z,0.00
2019-03-28T04:25:19.386Z,0.00
2019-03-28T04:26:19.374Z,0.00
2019-03-28T04:27:19.417Z,0.00
2019-03-28T04:28:31.469Z,0.00
2019-03-28T04:29:47.102Z,0.00
2019-03-28T04:30:47.129Z,0.00
2019-03-28T04:31:47.117Z,0.00
2019-03-28T04:32:47.081Z,0.00
2019-03-28T04:33:47.071Z,0.00
2019-03-28T04:34:47.066Z,0.00
2019-03-28T04:35:47.086Z,0.00
2019-03-28T04:36:47.054Z,0.00
2019-03-28T04:37:47.048Z,0.00
2019-03-28T04:38:47.046Z,0.00
2019-03-28T04:39:47.033Z,0.00
2019-03-28T04:40:47.027Z,0.00
2019-03-28T04:41:47.021Z,0.00
2019-03-28T04:42:47.017Z,0.00
2019-03-28T04:43:47.009Z,0.00
2019-03-28T04:44:47.000Z,0.00
2019-03-28T04:45:46.994Z,0.00
2019-03-28T04:46:46.991Z,0.00
2019-03-28T04:47:46.984Z,0.00
2019-03-28T04:48:46.976Z,0.00
2019-03-28T04:49:46.968Z,0.00
2019-03-28T04:50:46.962Z,0.00
2019-03-28T04:51:46.954Z,0.00
2019-03-28T04:52:46.949Z,4.00
2019-03-28T04:53:46.942Z,4.00
2019-03-28T04:54:46.935Z,0.00
2019-03-28T04:55:47.322Z,4.00
2019-03-28T04:56:46.922Z,4.00
2019-03-28T04:57:46.915Z,4.00
2019-03-28T04:58:46.910Z,4.00
2019-03-28T04:59:46.922Z,4.00
2019-03-28T05:00:46.914Z,4.00
2019-03-28T05:01:59.737Z,4.00
2019-03-28T05:03:14.628Z,4.00
2019-03-28T05:04:15.287Z,8.00
2019-03-28T05:05:14.615Z,8.00
2019-03-28T05:06:14.610Z,12.00
2019-03-28T05:07:14.601Z,8.00
2019-03-28T05:08:14.594Z,12.00
2019-03-28T05:09:14.589Z,12.00
2019-03-28T05:10:15.339Z,16.00
2019-03-28T05:11:14.596Z,20.00
2019-03-28T05:12:14.594Z,20.00
2019-03-28T05:13:14.583Z,20.00
2019-03-28T05:14:14.576Z,24.00
2019-03-28T05:15:14.572Z,24.00
2019-03-28T05:16:14.563Z,24.00
2019-03-28T05:17:14.624Z,32.00
2019-03-28T05:18:14.550Z,32.00
2019-03-28T05:19:14.545Z,36.00
2019-03-28T05:20:15.089Z,40.00
2019-03-28T05:21:14.542Z,40.00
2019-03-28T05:22:14.524Z,44.00
2019-03-28T05:23:14.544Z,52.00
2019-03-28T05:24:14.517Z,52.00
2019-03-28T05:25:14.507Z,52.00
2019-03-28T05:26:15.442Z,60.00
2019-03-28T05:27:16.579Z,60.00
2019-03-28T05:28:14.484Z,60.00
2019-03-28T05:29:14.479Z,68.00
2019-03-28T05:30:14.472Z,68.00
2019-03-28T05:31:14.473Z,68.00
2019-03-28T05:32:14.459Z,72.00
2019-03-28T05:33:14.452Z,76.00
2019-03-28T05:34:14.442Z,80.00
2019-03-28T05:35:14.438Z,80.00
2019-03-28T05:36:14.428Z,88.00
2019-03-28T05:37:14.422Z,88.00
2019-03-28T05:38:14.415Z,92.00
2019-03-28T05:39:14.404Z,96.00
2019-03-28T05:40:14.399Z,100.00
2019-03-28T05:41:17.291Z,104.00
2019-03-28T05:42:14.387Z,108.00
2019-03-28T05:43:14.381Z,112.00
2019-03-28T05:44:14.373Z,120.00
2019-03-28T05:45:14.368Z,128.00
2019-03-28T05:46:14.361Z,132.00
2019-03-28T05:47:14.357Z,140.00
2019-03-28T05:48:14.348Z,148.00
2019-03-28T05:49:14.548Z,156.00
2019-03-28T05:50:14.349Z,160.00
2019-03-28T05:51:14.342Z,172.00
2019-03-28T05:52:14.335Z,176.00
2019-03-28T05:53:14.328Z,184.00
2019-03-28T05:54:14.328Z,188.00
2019-03-28T05:55:14.320Z,196.00
2019-03-28T05:56:14.310Z,200.00
2019-03-28T05:57:14.305Z,208.00
2019-03-28T05:58:14.299Z,216.00
2019-03-28T05:59:14.292Z,228.00
2019-03-28T06:00:14.285Z,240.00
2019-03-28T06:01:14.276Z,252.00
2019-03-28T06:02:14.271Z,260.00
2019-03-28T06:03:14.266Z,272.00
2019-03-28T06:04:14.260Z,280.00
2019-03-28T06:05:14.255Z,296.00
2019-03-28T06:06:14.245Z,308.00
2019-03-28T06:07:14.239Z,316.00
2019-03-28T06:08:14.230Z,328.00
2019-03-28T06:09:14.226Z,328.00
2019-03-28T06:10:16.320Z,336.00
2019-03-28T06:11:14.211Z,344.00
2019-03-28T06:12:14.206Z,348.00
2019-03-28T06:13:14.200Z,344.00
2019-03-28T06:14:14.191Z,348.00
2019-03-28T06:15:14.186Z,352.00
2019-03-28T06:16:14.181Z,356.00
2019-03-28T06:17:14.176Z,360.00
2019-03-28T06:18:14.175Z,364.00
2019-03-28T06:19:14.160Z,368.00
2019-03-28T06:20:14.155Z,376.00
2019-03-28T06:21:14.148Z,380.00
2019-03-28T06:22:14.143Z,380.00
2019-03-28T06:23:14.136Z,384.00
2019-03-28T06:24:14.128Z,388.00
2019-03-28T06:25:14.128Z,392.00
2019-03-28T06:26:15.575Z,400.00
2019-03-28T06:27:14.127Z,404.00
2019-03-28T06:28:14.118Z,408.00
2019-03-28T06:29:23.807Z,416.00
2019-03-28T06:30:42.259Z,420.00
2019-03-28T06:31:54.778Z,420.00
2019-03-28T06:33:10.325Z,432.00
2019-03-28T06:34:10.326Z,440.00
2019-03-28T06:35:10.327Z,448.00
2019-03-28T06:36:10.719Z,452.00
2019-03-28T06:37:10.927Z,460.00
2019-03-28T06:38:10.301Z,472.00
2019-03-28T06:39:10.318Z,480.00
2019-03-28T06:40:10.310Z,492.00
2019-03-28T06:41:10.306Z,504.00
2019-03-28T06:42:10.297Z,516.00
2019-03-28T06:43:10.292Z,532.00
2019-03-28T06:44:10.289Z,540.00
2019-03-28T06:45:10.279Z,552.00
2019-03-28T06:46:10.273Z,568.00
2019-03-28T06:47:10.265Z,576.00
2019-03-28T06:48:10.260Z,600.00
2019-03-28T06:49:10.252Z,620.00
2019-03-28T06:50:10.250Z,644.00
2019-03-28T06:51:10.389Z,688.00
2019-03-28T06:52:10.233Z,716.00
2019-03-28T06:53:10.227Z,724.00
2019-03-28T06:54:10.218Z,728.00
2019-03-28T06:55:10.211Z,724.00
2019-03-28T06:56:10.205Z,716.00
2019-03-28T06:57:10.197Z,708.00
2019-03-28T06:58:10.192Z,684.00
2019-03-28T06:59:10.187Z,660.00
2019-03-28T07:00:10.177Z,636.00
2019-03-28T07:01:10.172Z,600.00
2019-03-28T07:02:10.166Z,576.00
2019-03-28T07:03:10.162Z,556.00
2019-03-28T07:04:10.156Z,556.00
2019-03-28T07:05:10.147Z,564.00
2019-03-28T07:06:10.147Z,572.00
2019-03-28T07:07:10.131Z,584.00
2019-03-28T07:08:10.126Z,604.00
2019-03-28T07:09:10.122Z,624.00
2019-03-28T07:10:10.912Z,652.00
2019-03-28T07:11:10.108Z,676.00
2019-03-28T07:12:10.099Z,716.00
2019-03-28T07:13:10.427Z,756.00
2019-03-28T07:14:10.087Z,784.00
2019-03-28T07:15:10.081Z,804.00
2019-03-28T07:16:10.073Z,816.00
2019-03-28T07:17:10.067Z,820.00
2019-03-28T07:18:10.059Z,816.00
2019-03-28T07:19:10.051Z,824.00
2019-03-28T07:20:10.053Z,844.00
2019-03-28T07:21:10.036Z,868.00
2019-03-28T07:22:10.373Z,896.00
2019-03-28T07:23:10.023Z,908.00
2019-03-28T07:24:10.019Z,920.00
2019-03-28T07:25:10.008Z,940.00
2019-03-28T07:26:10.001Z,980.00
2019-03-28T07:27:09.997Z,1020.00
2019-03-28T07:28:09.988Z,1056.00
2019-03-28T07:29:09.980Z,1100.00
2019-03-28T07:30:09.978Z,1148.00
2019-03-28T07:31:09.968Z,1188.00
2019-03-28T07:32:09.961Z,1232.00
2019-03-28T07:33:09.951Z,1268.00
2019-03-28T07:34:09.945Z,1292.00
2019-03-28T07:35:09.938Z,1328.00
2019-03-28T07:36:09.930Z,1352.00
2019-03-28T07:37:09.926Z,1368.00
2019-03-28T07:38:09.919Z,1404.00
2019-03-28T07:39:09.915Z,1436.00
2019-03-28T07:40:09.909Z,1484.00
2019-03-28T07:41:09.911Z,1512.00
2019-03-28T07:42:09.912Z,1552.00
2019-03-28T07:43:09.905Z,1572.00
2019-03-28T07:44:10.360Z,1600.00
2019-03-28T07:45:10.550Z,1672.00
2019-03-28T07:46:09.883Z,1676.00
2019-03-28T07:47:09.880Z,1684.00
2019-03-28T07:48:09.870Z,1724.00
2019-03-28T07:49:10.066Z,1784.00
2019-03-28T07:50:09.857Z,1800.00
2019-03-28T07:51:09.850Z,1832.00
2019-03-28T07:52:09.844Z,1864.00
2019-03-28T07:53:09.834Z,1896.00
2019-03-28T07:54:09.830Z,1944.00
2019-03-28T07:55:09.972Z,2008.00
2019-03-28T07:56:09.837Z,2072.00
2019-03-28T07:57:09.830Z,2092.00
2019-03-28T07:58:09.826Z,2140.00
2019-03-28T07:59:09.821Z,2192.00
2019-03-28T08:00:09.814Z,2228.00
2019-03-28T08:01:09.807Z,2260.00
2019-03-28T08:02:09.799Z,2348.00
2019-03-28T08:03:09.796Z,2452.00
2019-03-28T08:04:12.259Z,2616.00
2019-03-28T08:05:09.781Z,3076.00
2019-03-28T08:06:12.579Z,2836.00
2019-03-28T08:07:09.765Z,2848.00
2019-03-28T08:08:09.759Z,2976.00
2019-03-28T08:09:09.753Z,2856.00
2019-03-28T08:10:09.746Z,2800.00
2019-03-28T08:11:09.743Z,2884.00
2019-03-28T08:12:21.891Z,2952.00
2019-03-28T08:13:37.457Z,2964.00
2019-03-28T08:14:37.452Z,2960.00
2019-03-28T08:15:37.447Z,3084.00
2019-03-28T08:16:37.441Z,3116.00
2019-03-28T08:17:37.434Z,3036.00
2019-03-28T08:18:37.428Z,3016.00
2019-03-28T08:19:38.729Z,2980.00
2019-03-28T08:20:37.415Z,2984.00
2019-03-28T08:21:37.413Z,3012.00
2019-03-28T08:22:37.404Z,2988.00
2019-03-28T08:23:37.398Z,3044.00
2019-03-28T08:24:37.400Z,2976.00
2019-03-28T08:25:37.380Z,2816.00
2019-03-28T08:26:37.399Z,2764.00
2019-03-28T08:27:37.395Z,2728.00
2019-03-28T08:28:37.389Z,2652.00
2019-03-28T08:29:37.375Z,2556.00
2019-03-28T08:30:37.368Z,2488.00
2019-03-28T08:31:40.567Z,2448.00
2019-03-28T08:32:39.874Z,2432.00
2019-03-28T08:33:37.349Z,2428.00
2019-03-28T08:34:37.346Z,2440.00
2019-03-28T08:35:37.335Z,2456.00
2019-03-28T08:36:37.330Z,2492.00
2019-03-28T08:37:37.323Z,2508.00
2019-03-28T08:38:37.318Z,2524.00
2019-03-28T08:39:37.315Z,2552.00
2019-03-28T08:40:39.603Z,2688.00
2019-03-28T08:41:37.296Z,2828.00
2019-03-28T08:42:37.289Z,2912.00
2019-03-28T08:43:37.304Z,2948.00
2019-03-28T08:44:37.275Z,3028.00
2019-03-28T08:45:37.270Z,3232.00
2019-03-28T08:46:37.261Z,3412.00
2019-03-28T08:47:37.257Z,3492.00
2019-03-28T08:48:37.247Z,3744.00
2019-03-28T08:49:37.246Z,3944.00
2019-03-28T08:50:37.237Z,3988.00
2019-03-28T08:51:37.231Z,4680.00
2019-03-28T08:52:37.224Z,4384.00
2019-03-28T08:53:37.257Z,4456.00
2019-03-28T08:54:37.234Z,4812.00
2019-03-28T08:55:37.241Z,5188.00
2019-03-28T08:56:37.222Z,5624.00
2019-03-28T08:57:37.216Z,6384.00
2019-03-28T08:58:38.329Z,5832.00
2019-03-28T08:59:37.204Z,6484.00
2019-03-28T09:00:51.056Z,6500.00
2019-03-28T09:01:39.190Z,5724.00
2019-03-28T09:02:37.188Z,5640.00
2019-03-28T09:03:37.179Z,5312.00
2019-03-28T09:04:37.173Z,4680.00
2019-03-28T09:05:37.167Z,4688.00
2019-03-28T09:06:37.160Z,4428.00
2019-03-28T09:07:37.153Z,4352.00
2019-03-28T09:08:37.148Z,4192.00
2019-03-28T09:09:37.144Z,4276.00
2019-03-28T09:10:37.138Z,4184.00
2019-03-28T09:11:37.132Z,4052.00
2019-03-28T09:12:37.125Z,3932.00
2019-03-28T09:13:37.119Z,3832.00
2019-03-28T09:14:37.117Z,3752.00
2019-03-28T09:15:43.524Z,3664.00
2019-03-28T09:17:04.855Z,3548.00
2019-03-28T09:18:04.848Z,3528.00
2019-03-28T09:19:04.842Z,3592.00
2019-03-28T09:20:04.839Z,3584.00
2019-03-28T09:21:04.832Z,3524.00
2019-03-28T09:22:04.823Z,3472.00
2019-03-28T09:23:04.816Z,3396.00
2019-03-28T09:24:04.813Z,3324.00
2019-03-28T09:25:04.803Z,3296.00
2019-03-28T09:26:04.935Z,3280.00
2019-03-28T09:27:04.807Z,3304.00
2019-03-28T09:28:04.788Z,3304.00
2019-03-28T09:29:04.787Z,3356.00
2019-03-28T09:30:04.778Z,3548.00
2019-03-28T09:31:04.773Z,3884.00
2019-03-28T09:32:04.765Z,4680.00
2019-03-28T09:33:04.760Z,5876.00
2019-03-28T09:34:04.753Z,6548.00
2019-03-28T09:35:04.746Z,8196.00
2019-03-28T09:36:04.740Z,7576.00
2019-03-28T09:37:04.733Z,10856.00
2019-03-28T09:38:04.728Z,8872.00
2019-03-28T09:39:04.721Z,8068.00
2019-03-28T09:40:04.716Z,9756.00
2019-03-28T09:41:04.712Z,6840.00
2019-03-28T09:42:04.707Z,6836.00
2019-03-28T09:43:04.697Z,7248.00
2019-03-28T09:44:04.691Z,7464.00
2019-03-28T09:45:04.685Z,8524.00
2019-03-28T09:46:04.678Z,9152.00
2019-03-28T09:47:04.672Z,7256.00
2019-03-28T09:48:04.667Z,7888.00
2019-03-28T09:49:04.659Z,9148.00
2019-03-28T09:50:04.650Z,8536.00
2019-03-28T09:51:04.644Z,7860.00
2019-03-28T09:52:04.637Z,8232.00
2019-03-28T09:53:04.631Z,7992.00
2019-03-28T09:54:04.623Z,6476.00
2019-03-28T09:55:04.621Z,6852.00
2019-03-28T09:56:04.613Z,7152.00
2019-03-28T09:57:04.607Z,7404.00
2019-03-28T09:58:04.599Z,7488.00
2019-03-28T09:59:04.594Z,7316.00
2019-03-28T10:00:04.584Z,7660.00
2019-03-28T10:01:04.578Z,9220.00
2019-03-28T10:02:04.626Z,9404.00
2019-03-28T10:03:04.585Z,10252.00
2019-03-28T10:04:06.451Z,10408.00
2019-03-28T10:05:04.550Z,10552.00
2019-03-28T10:06:04.545Z,9780.00
2019-03-28T10:07:05.619Z,10124.00
2019-03-28T10:08:04.533Z,11428.00
2019-03-28T10:09:04.526Z,9960.00
2019-03-28T10:10:05.374Z,10412.00
2019-03-28T10:11:04.513Z,10280.00
2019-03-28T10:12:04.510Z,9692.00
2019-03-28T10:13:04.503Z,9664.00
2019-03-28T10:14:04.496Z,8568.00
2019-03-28T10:15:04.492Z,9736.00
2019-03-28T10:16:04.484Z,10004.00
2019-03-28T10:17:04.479Z,9400.00
2019-03-28T10:18:04.478Z,8540.00
2019-03-28T10:19:04.467Z,8168.00
2019-03-28T10:20:05.753Z,7232.00
2019-03-28T10:21:04.453Z,26368.00
2019-03-28T10:22:04.449Z,32576.00
2019-03-28T10:23:04.442Z,21664.00
2019-03-28T10:24:04.440Z,7464.00
2019-03-28T10:25:04.455Z,5332.00
2019-03-28T10:26:04.449Z,4824.00
2019-03-28T10:27:04.440Z,4600.00
2019-03-28T10:28:04.437Z,4272.00
2019-03-28T10:29:04.430Z,3800.00
2019-03-28T10:30:04.426Z,3644.00
2019-03-28T10:31:15.740Z,3116.00
2019-03-28T10:32:32.450Z,2988.00
2019-03-28T10:33:32.134Z,3016.00
2019-03-28T10:34:32.131Z,2792.00
2019-03-28T10:35:32.123Z,2732.00
2019-03-28T10:36:32.115Z,2612.00
2019-03-28T10:37:32.109Z,2580.00
2019-03-28T10:38:32.106Z,2628.00
2019-03-28T10:39:32.098Z,2572.00
2019-03-28T10:40:32.087Z,2572.00
2019-03-28T10:41:32.082Z,2420.00
2019-03-28T10:42:32.081Z,2412.00
2019-03-28T10:43:32.072Z,2508.00
2019-03-28T10:44:32.064Z,2516.00
2019-03-28T10:45:33.564Z,2520.00
2019-03-28T10:46:32.051Z,2560.00
2019-03-28T10:47:32.043Z,2696.00
2019-03-28T10:48:32.043Z,2468.00
2019-03-28T10:49:32.029Z,2644.00
2019-03-28T10:50:40.800Z,2960.00
2019-03-28T10:51:59.743Z,2832.00
2019-03-28T10:52:59.741Z,1808.00
2019-03-28T10:53:59.735Z,2324.00
2019-03-28T10:54:59.729Z,2552.00
2019-03-28T10:55:59.839Z,2584.00
2019-03-28T10:57:12.860Z,2560.00
2019-03-28T10:58:27.438Z,2820.00
2019-03-28T10:59:27.436Z,2508.00
2019-03-28T11:00:27.428Z,2716.00
2019-03-28T11:01:46.976Z,2660.00
2019-03-28T11:02:55.276Z,2416.00
2019-03-28T11:03:55.155Z,2700.00
2019-03-28T11:04:55.132Z,2568.00
2019-03-28T11:05:55.128Z,2832.00
2019-03-28T11:06:55.122Z,2588.00
2019-03-28T11:07:55.124Z,1816.00
2019-03-28T11:08:55.108Z,1328.00
2019-03-28T11:09:55.281Z,2080.00
2019-03-28T11:10:55.107Z,2100.00
2019-03-28T11:11:55.098Z,2128.00
2019-03-28T11:12:55.093Z,2184.00
2019-03-28T11:13:55.086Z,2040.00
2019-03-28T11:14:55.081Z,1984.00
2019-03-28T11:15:55.074Z,2088.00
2019-03-28T11:16:55.873Z,1964.00
2019-03-28T11:17:55.062Z,2236.00
2019-03-28T11:18:55.056Z,2368.00
2019-03-28T11:19:56.162Z,1840.00
2019-03-28T11:20:55.046Z,2092.00
2019-03-28T11:21:55.042Z,1712.00
2019-03-28T11:22:55.035Z,1328.00
2019-03-28T11:23:55.028Z,1548.00
2019-03-28T11:24:55.031Z,1804.00
2019-03-28T11:25:57.337Z,1592.00
2019-03-28T11:26:55.027Z,1480.00
2019-03-28T11:27:55.021Z,1468.00
2019-03-28T11:28:55.014Z,1968.00
2019-03-28T11:29:55.007Z,1604.00
2019-03-28T11:30:55.000Z,2216.00
2019-03-28T11:31:54.994Z,2100.00
2019-03-28T11:32:54.986Z,1912.00
2019-03-28T11:33:54.980Z,1912.00
2019-03-28T11:34:54.977Z,1892.00
2019-03-28T11:35:54.967Z,1828.00
2019-03-28T11:36:54.964Z,1764.00
2019-03-28T11:37:54.957Z,1768.00
2019-03-28T11:38:55.125Z,1688.00
2019-03-28T11:39:54.942Z,2016.00
2019-03-28T11:40:54.939Z,1960.00
2019-03-28T11:41:54.932Z,1792.00
2019-03-28T11:42:54.923Z,1480.00
2019-03-28T11:43:54.915Z,1380.00
2019-03-28T11:44:54.909Z,1436.00
2019-03-28T11:45:54.903Z,1488.00
2019-03-28T11:46:54.899Z,1624.00
2019-03-28T11:47:54.890Z,1628.00
2019-03-28T11:48:54.885Z,1780.00
2019-03-28T11:49:55.864Z,1908.00
2019-03-28T11:50:54.870Z,1984.00
2019-03-28T11:51:54.864Z,1900.00
2019-03-28T11:52:54.857Z,1736.00
2019-03-28T11:53:54.852Z,1688.00
2019-03-28T11:54:54.845Z,1616.00
2019-03-28T11:55:54.841Z,1256.00
2019-03-28T11:56:54.834Z,1028.00
2019-03-28T11:57:56.461Z,964.00
2019-03-28T11:58:54.819Z,1296.00
2019-03-28T11:59:57.875Z,1076.00
2019-03-28T12:00:54.807Z,1188.00
2019-03-28T12:02:01.996Z,1440.00
2019-03-28T12:03:22.522Z,1380.00
2019-03-28T12:04:22.517Z,1056.00
2019-03-28T12:05:22.516Z,1076.00
2019-03-28T12:06:22.506Z,1140.00
2019-03-28T12:07:22.551Z,1088.00
2019-03-28T12:08:22.491Z,904.00
2019-03-28T12:09:22.483Z,920.00
2019-03-28T12:10:22.479Z,1224.00
2019-03-28T12:11:22.471Z,1068.00
2019-03-28T12:12:22.466Z,908.00
2019-03-28T12:13:22.460Z,1168.00
2019-03-28T12:14:22.456Z,1084.00
2019-03-28T12:15:22.447Z,1108.00
2019-03-28T12:16:22.444Z,1236.00
2019-03-28T12:17:22.437Z,1352.00
2019-03-28T12:18:24.911Z,1400.00
2019-03-28T12:19:22.424Z,1448.00
2019-03-28T12:20:22.415Z,1436.00
2019-03-28T12:21:22.410Z,1368.00
2019-03-28T12:22:22.402Z,1248.00
2019-03-28T12:23:22.616Z,1180.00
2019-03-28T12:24:22.391Z,1128.00
2019-03-28T12:25:22.382Z,1084.00
2019-03-28T12:26:22.376Z,1004.00
2019-03-28T12:27:22.371Z,840.00
2019-03-28T12:28:22.363Z,824.00
2019-03-28T12:29:22.355Z,848.00
2019-03-28T12:30:22.349Z,864.00
2019-03-28T12:31:22.344Z,928.00
2019-03-28T12:32:22.336Z,984.00
2019-03-28T12:33:22.330Z,920.00
2019-03-28T12:34:22.328Z,924.00
2019-03-28T12:35:22.338Z,964.00
2019-03-28T12:36:22.339Z,1088.00
2019-03-28T12:37:22.328Z,1164.00
2019-03-28T12:38:22.325Z,1136.00
2019-03-28T12:39:22.315Z,1124.00
2019-03-28T12:40:22.312Z,1156.00
2019-03-28T12:41:22.301Z,1220.00
2019-03-28T12:42:22.293Z,1284.00
2019-03-28T12:43:22.290Z,1356.00
2019-03-28T12:44:22.282Z,1328.00
2019-03-28T12:45:22.275Z,1228.00
2019-03-28T12:46:25.473Z,1288.00
2019-03-28T12:47:22.258Z,1376.00
2019-03-28T12:48:22.269Z,1460.00
2019-03-28T12:49:22.246Z,1468.00